Madisonville, Tennessee
Current Conditions -  °F | °C
As of 12:55 PM on Monday 24 Nov 2014 (Local Time) from KMMI Reporting Station
Few Clouds Few Clouds  
Wind Chill: 70°   Ceiling: Unl
Heat Index: 70°   Visibility: 10mi
Dew Point: 50°   Wind: 20mph
Humidity: 49%   Direction: 230°SW
Pressure: 29.75"   Gusts: NA
Location:  35.52°N, 84.36°W
Report Text: KMMI 241755Z AUTO 23017KT 10SM FEW047 21/10 A2975 RMK
Loading
Personal Weather Stations






























Interactive Weather Map New forecast layout! Learn more

10-Day Weather Forecast

Advertisements
Track Severe Weather on mobile